Time,TemperatureF,DewpointF,PressureIn,WindDirection,WindDirectionDegrees,WindSpeedMPH,WindSpeedGustMPH,Humidity,HourlyPrecipIn,Conditions,Clouds,dailyrainin,SoftwareType,DateUTC
2013-04-01 00:00:00,38.3,35.3,29.77,SE,138,4.0,4.0,89,0.00,,,0.00,Wunderground v.1.15,2013-04-01 04:00:00,
2013-04-01 00:05:00,38.2,35.2,29.77,ESE,119,4.0,4.0,89,0.00,,,0.01,Wunderground v.1.15,2013-04-01 04:05:00,
2013-04-01 00:10:00,38.1,35.4,29.77,ENE,76,3.0,3.0,90,0.00,,,0.01,Wunderground v.1.15,2013-04-01 04:10:00,
2013-04-01 00:15:00,38.0,35.3,29.77,SE,134,2.0,3.0,90,0.00,,,0.01,Wunderground v.1.15,2013-04-01 04:15:00,
2013-04-01 00:20:00,37.9,35.2,29.76,SE,133,2.0,2.0,90,0.00,,,0.01,Wunderground v.1.15,2013-04-01 04:20:00,
2013-04-01 00:25:00,37.9,35.5,29.76,SE,128,2.0,2.0,91,0.00,,,0.01,Wunderground v.1.15,2013-04-01 04:25:00,
2013-04-01 00:30:00,37.9,35.5,29.76,East,90,2.0,3.0,91,0.00,,,0.02,Wunderground v.1.15,2013-04-01 04:30:00,
2013-04-01 00:35:00,37.7,35.3,29.75,SE,136,3.0,6.0,91,0.00,,,0.02,Wunderground v.1.15,2013-04-01 04:35:00,
2013-04-01 00:45:00,37.4,35.0,29.75,East,89,5.0,5.0,91,0.04,,,0.03,Wunderground v.1.15,2013-04-01 04:45:00,
2013-04-01 00:50:00,37.5,35.1,29.75,ESE,110,5.0,5.0,91,0.04,,,0.03,Wunderground v.1.15,2013-04-01 04:50:00,
2013-04-01 00:55:00,37.4,35.3,29.74,East,92,4.0,5.0,92,0.04,,,0.03,Wunderground v.1.15,2013-04-01 04:55:00,
2013-04-01 01:00:00,37.4,35.3,29.74,ENE,63,3.0,3.0,92,0.00,,,0.03,Wunderground v.1.15,2013-04-01 05:00:00,
2013-04-01 01:05:00,37.4,35.3,29.74,NNE,24,3.0,3.0,92,0.00,,,0.03,Wunderground v.1.15,2013-04-01 05:05:00,
2013-04-01 01:10:00,37.3,35.2,29.74,ESE,107,3.0,8.0,92,0.00,,,0.04,Wunderground v.1.15,2013-04-01 05:10:00,
2013-04-01 01:15:00,37.3,35.2,29.73,East,96,4.0,8.0,92,0.00,,,0.04,Wunderground v.1.15,2013-04-01 05:15:00,
2013-04-01 01:20:00,37.3,35.5,29.73,East,95,4.0,4.0,93,0.00,,,0.04,Wunderground v.1.15,2013-04-01 05:20:00,
2013-04-01 01:25:00,37.3,35.5,29.72,ESE,117,3.0,4.0,93,0.00,,,0.04,Wunderground v.1.15,2013-04-01 05:25:00,
2013-04-01 01:30:00,37.2,35.4,29.72,ESE,115,3.0,5.0,93,0.00,,,0.04,Wunderground v.1.15,2013-04-01 05:30:00,
2013-04-01 01:35:00,37.2,35.4,29.72,SE,130,3.0,5.0,93,0.00,,,0.04,Wunderground v.1.15,2013-04-01 05:35:00,
2013-04-01 01:40:00,37.3,35.5,29.72,ESE,121,2.0,4.0,93,0.00,,,0.04,Wunderground v.1.15,2013-04-01 05:40:00,
2013-04-01 01:50:00,37.3,35.5,29.71,ESE,117,4.0,4.0,93,0.00,,,0.04,Wunderground v.1.15,2013-04-01 05:50:00,
2013-04-01 02:00:00,37.2,35.4,29.71,ESE,111,3.0,3.0,93,0.00,,,0.05,Wunderground v.1.15,2013-04-01 06:00:00,
2013-04-01 02:05:00,37.1,35.3,29.71,NE,36,3.0,3.0,93,0.00,,,0.05,Wunderground v.1.15,2013-04-01 06:05:00,
2013-04-01 02:10:00,37.1,35.3,29.71,ESE,122,3.0,9.0,93,0.00,,,0.05,Wunderground v.1.15,2013-04-01 06:10:00,
2013-04-01 02:15:00,37.0,35.2,29.71,East,101,3.0,9.0,93,0.00,,,0.06,Wunderground v.1.15,2013-04-01 06:15:00,
2013-04-01 02:20:00,36.9,35.1,29.71,SE,129,4.0,4.0,93,0.15,,,0.07,Wunderground v.1.15,2013-04-01 06:20:00,
2013-04-01 02:25:00,36.7,34.9,29.70,NE,51,4.0,4.0,93,0.07,,,0.07,Wunderground v.1.15,2013-04-01 06:25:00,
2013-04-01 02:30:00,36.6,34.8,29.70,ESE,122,3.0,5.0,93,0.06,,,0.08,Wunderground v.1.15,2013-04-01 06:30:00,
2013-04-01 02:35:00,36.4,34.6,29.70,ESE,113,4.0,5.0,93,0.06,,,0.08,Wunderground v.1.15,2013-04-01 06:35:00,
2013-04-01 02:40:00,36.0,34.2,29.70,SE,136,4.0,6.0,93,0.07,,,0.09,Wunderground v.1.15,2013-04-01 06:40:00,
2013-04-01 02:45:00,35.8,34.0,29.70,SSE,150,5.0,6.0,93,0.06,,,0.09,Wunderground v.1.15,2013-04-01 06:45:00,
2013-04-01 02:50:00,35.7,33.9,29.69,ESE,104,3.0,4.0,93,0.04,,,0.09,Wunderground v.1.15,2013-04-01 06:50:00,
2013-04-01 02:55:00,35.6,33.8,29.69,ESE,113,2.0,4.0,93,0.04,,,0.10,Wunderground v.1.15,2013-04-01 06:55:00,
2013-04-01 03:05:00,35.3,33.5,29.68,East,96,2.0,2.0,93,0.04,,,0.11,Wunderground v.1.15,2013-04-01 07:05:00,
2013-04-01 03:15:00,35.2,33.4,29.68,East,97,1.0,1.0,93,0.04,,,0.11,Wunderground v.1.15,2013-04-01 07:15:00,
2013-04-01 03:20:00,35.2,33.4,29.68,East,97,0.0,1.0,93,0.04,,,0.11,Wunderground v.1.15,2013-04-01 07:20:00,
2013-04-01 03:25:00,35.2,33.4,29.67,East,97,0.0,2.0,93,0.00,,,0.11,Wunderground v.1.15,2013-04-01 07:25:00,
2013-04-01 03:30:00,35.2,33.4,29.67,ENE,65,1.0,2.0,93,0.00,,,0.11,Wunderground v.1.15,2013-04-01 07:30:00,
2013-04-01 03:35:00,35.2,33.4,29.66,ENE,78,1.0,1.0,93,0.00,,,0.11,Wunderground v.1.15,2013-04-01 07:35:00,
2013-04-01 03:40:00,35.1,33.3,29.66,SE,142,1.0,1.0,93,0.00,,,0.11,Wunderground v.1.15,2013-04-01 07:40:00,
2013-04-01 03:45:00,35.1,33.3,29.66,East,86,1.0,1.0,93,0.00,,,0.11,Wunderground v.1.15,2013-04-01 07:45:00,
2013-04-01 03:50:00,35.1,33.5,29.65,East,86,0.0,1.0,94,0.00,,,0.11,Wunderground v.1.15,2013-04-01 07:50:00,
2013-04-01 03:55:00,35.0,33.4,29.65,East,86,0.0,1.0,94,0.00,,,0.11,Wunderground v.1.15,2013-04-01 07:55:00,
2013-04-01 04:00:00,34.9,33.3,29.65,East,86,1.0,2.0,94,0.00,,,0.11,Wunderground v.1.15,2013-04-01 08:00:00,
2013-04-01 04:10:00,34.8,33.2,29.65,East,86,1.0,1.0,94,0.00,,,0.11,Wunderground v.1.15,2013-04-01 08:10:00,
2013-04-01 04:15:00,34.8,33.2,29.64,East,86,0.0,1.0,94,0.00,,,0.11,Wunderground v.1.15,2013-04-01 08:15:00,
2013-04-01 04:20:00,34.7,33.2,29.64,East,86,1.0,1.0,94,0.00,,,0.11,Wunderground v.1.15,2013-04-01 08:20:00,
2013-04-01 04:30:00,34.7,33.2,29.64,East,86,1.0,1.0,94,0.00,,,0.11,Wunderground v.1.15,2013-04-01 08:30:00,
2013-04-01 04:40:00,34.7,33.2,29.63,East,86,0.0,2.0,94,0.00,,,0.11,Wunderground v.1.15,2013-04-01 08:40:00,
2013-04-01 04:45:00,34.6,33.1,29.63,East,86,1.0,2.0,94,0.00,,,0.11,Wunderground v.1.15,2013-04-01 08:45:00,
2013-04-01 04:50:00,34.5,33.0,29.63,East,86,1.0,1.0,94,0.00,,,0.11,Wunderground v.1.15,2013-04-01 08:50:00,
2013-04-01 05:00:00,34.7,33.2,29.63,East,86,0.0,0.0,94,0.00,,,0.11,Wunderground v.1.15,2013-04-01 09:00:00,
2013-04-01 05:05:00,34.7,33.2,29.62,East,86,0.0,0.0,94,0.00,,,0.11,Wunderground v.1.15,2013-04-01 09:05:00,
2013-04-01 05:10:00,34.7,33.2,29.63,East,86,1.0,1.0,94,0.00,,,0.11,Wunderground v.1.15,2013-04-01 09:10:00,
2013-04-01 05:20:00,34.8,33.2,29.62,East,86,0.0,0.0,94,0.00,,,0.11,Wunderground v.1.15,2013-04-01 09:20:00,
2013-04-01 05:25:00,34.8,33.2,29.62,East,86,0.0,0.0,94,0.00,,,0.11,Wunderground v.1.15,2013-04-01 09:25:00,
2013-04-01 05:30:00,34.9,33.3,29.61,East,86,0.0,0.0,94,0.00,,,0.11,Wunderground v.1.15,2013-04-01 09:30:00,
2013-04-01 05:35:00,34.9,33.3,29.61,East,86,0.0,0.0,94,0.00,,,0.11,Wunderground v.1.15,2013-04-01 09:35:00,
2013-04-01 05:45:00,35.0,33.4,29.61,East,86,0.0,0.0,94,0.00,,,0.11,Wunderground v.1.15,2013-04-01 09:45:00,
2013-04-01 05:50:00,35.0,33.4,29.61,East,97,0.0,1.0,94,0.00,,,0.11,Wunderground v.1.15,2013-04-01 09:50:00,
2013-04-01 05:55:00,34.8,33.2,29.61,East,97,0.0,1.0,94,0.00,,,0.11,Wunderground v.1.15,2013-04-01 09:55:00,
2013-04-01 06:00:00,34.8,33.2,29.61,East,97,0.0,0.0,94,0.00,,,0.11,Wunderground v.1.15,2013-04-01 10:00:00,
2013-04-01 06:05:00,34.9,33.3,29.61,East,97,0.0,0.0,94,0.00,,,0.11,Wunderground v.1.15,2013-04-01 10:05:00,
2013-04-01 06:10:00,34.9,33.3,29.62,East,97,0.0,0.0,94,0.00,,,0.11,Wunderground v.1.15,2013-04-01 10:10:00,
2013-04-01 06:15:00,35.0,33.4,29.61,East,97,0.0,0.0,94,0.00,,,0.11,Wunderground v.1.15,2013-04-01 10:15:00,
2013-04-01 06:20:00,35.0,33.4,29.61,East,97,0.0,0.0,94,0.00,,,0.11,Wunderground v.1.15,2013-04-01 10:20:00,
2013-04-01 06:25:00,35.0,33.4,29.61,East,97,0.0,0.0,94,0.00,,,0.11,Wunderground v.1.15,2013-04-01 10:25:00,
2013-04-01 06:30:00,35.0,33.4,29.61,East,97,0.0,0.0,94,0.00,,,0.11,Wunderground v.1.15,2013-04-01 10:30:00,
2013-04-01 06:35:00,35.1,33.5,29.61,East,97,0.0,0.0,94,0.00,,,0.11,Wunderground v.1.15,2013-04-01 10:35:00,
2013-04-01 06:40:00,35.2,33.4,29.61,East,97,0.0,0.0,93,0.00,,,0.11,Wunderground v.1.15,2013-04-01 10:40:00,
2013-04-01 06:45:00,34.9,33.1,29.61,East,97,0.0,0.0,93,0.00,,,0.11,Wunderground v.1.15,2013-04-01 10:45:00,
2013-04-01 06:50:00,34.9,33.3,29.61,East,97,0.0,0.0,94,0.00,,,0.11,Wunderground v.1.15,2013-04-01 10:50:00,
2013-04-01 06:55:00,35.0,33.4,29.61,East,97,0.0,0.0,94,0.00,,,0.11,Wunderground v.1.15,2013-04-01 10:55:00,
2013-04-01 07:05:00,34.9,33.3,29.61,East,98,1.0,2.0,94,0.00,,,0.11,Wunderground v.1.15,2013-04-01 11:05:00,
2013-04-01 07:10:00,34.9,33.3,29.61,ESE,109,1.0,1.0,94,0.00,,,0.11,Wunderground v.1.15,2013-04-01 11:10:00,
2013-04-01 07:20:00,35.0,33.4,29.61,ESE,109,0.0,1.0,94,0.00,,,0.11,Wunderground v.1.15,2013-04-01 11:20:00,
2013-04-01 07:25:00,35.0,33.4,29.61,ESE,109,0.0,2.0,94,0.00,,,0.11,Wunderground v.1.15,2013-04-01 11:25:00,
2013-04-01 07:30:00,35.0,33.4,29.61,ESE,109,1.0,2.0,94,0.00,,,0.11,Wunderground v.1.15,2013-04-01 11:30:00,
2013-04-01 07:35:00,35.0,33.4,29.61,ESE,109,1.0,2.0,94,0.00,,,0.11,Wunderground v.1.15,2013-04-01 11:35:00,
2013-04-01 07:40:00,35.0,33.7,29.61,ESE,109,1.0,1.0,95,0.00,,,0.11,Wunderground v.1.15,2013-04-01 11:40:00,
2013-04-01 07:45:00,35.0,33.7,29.61,ESE,109,1.0,3.0,95,0.00,,,0.11,Wunderground v.1.15,2013-04-01 11:45:00,
2013-04-01 07:50:00,35.1,33.8,29.61,ESE,109,1.0,1.0,95,0.00,,,0.11,Wunderground v.1.15,2013-04-01 11:50:00,
2013-04-01 07:55:00,35.3,34.0,29.61,ESE,109,1.0,1.0,95,0.00,,,0.11,Wunderground v.1.15,2013-04-01 11:55:00,
2013-04-01 08:05:00,35.5,34.2,29.61,ESE,109,0.0,0.0,95,0.00,,,0.11,Wunderground v.1.15,2013-04-01 12:05:00,
2013-04-01 08:10:00,35.6,34.3,29.61,ESE,109,0.0,0.0,95,0.00,,,0.11,Wunderground v.1.15,2013-04-01 12:10:00,
2013-04-01 08:15:00,35.7,34.4,29.61,ESE,109,1.0,1.0,95,0.00,,,0.11,Wunderground v.1.15,2013-04-01 12:15:00,
2013-04-01 08:20:00,36.0,34.7,29.61,ESE,109,0.0,1.0,95,0.00,,,0.11,Wunderground v.1.15,2013-04-01 12:20:00,
2013-04-01 08:25:00,36.1,34.8,29.60,ESE,109,1.0,1.0,95,0.00,,,0.11,Wunderground v.1.15,2013-04-01 12:25:00,
2013-04-01 08:30:00,36.2,34.9,29.60,ESE,109,1.0,1.0,95,0.00,,,0.11,Wunderground v.1.15,2013-04-01 12:30:00,
2013-04-01 08:35:00,36.3,35.0,29.60,ESE,109,1.0,1.0,95,0.00,,,0.11,Wunderground v.1.15,2013-04-01 12:35:00,
2013-04-01 08:40:00,36.5,35.2,29.60,ESE,103,1.0,1.0,95,0.00,,,0.11,Wunderground v.1.15,2013-04-01 12:40:00,
2013-04-01 08:45:00,36.6,35.3,29.60,ENE,63,2.0,2.0,95,0.00,,,0.11,Wunderground v.1.15,2013-04-01 12:45:00,
2013-04-01 08:50:00,36.7,36.7,29.60,ENE,69,1.0,1.0,100,0.00,,,0.11,Wunderground v.1.15,2013-04-01 12:50:00,
2013-04-01 08:55:00,36.8,35.5,29.59,NE,55,1.0,2.0,95,0.00,,,0.11,Wunderground v.1.15,2013-04-01 12:55:00,
2013-04-01 09:05:00,37.0,35.7,29.59,NE,56,2.0,2.0,95,0.00,,,0.11,Wunderground v.1.15,2013-04-01 13:05:00,
2013-04-01 09:10:00,37.1,35.8,29.58,East,89,2.0,3.0,95,0.00,,,0.11,Wunderground v.1.15,2013-04-01 13:10:00,
2013-04-01 09:20:00,37.2,35.6,29.58,SE,134,2.0,5.0,94,0.00,,,0.11,Wunderground v.1.15,2013-04-01 13:20:00,
2013-04-01 09:25:00,37.0,35.4,29.58,SE,124,3.0,3.0,94,0.00,,,0.11,Wunderground v.1.15,2013-04-01 13:25:00,
2013-04-01 09:30:00,37.1,35.5,29.57,ESE,112,3.0,3.0,94,0.00,,,0.11,Wunderground v.1.15,2013-04-01 13:30:00,
2013-04-01 09:40:00,37.2,35.6,29.57,ESE,120,3.0,3.0,94,0.00,,,0.11,Wunderground v.1.15,2013-04-01 13:40:00,
2013-04-01 09:45:00,37.3,35.7,29.56,East,94,3.0,3.0,94,0.00,,,0.11,Wunderground v.1.15,2013-04-01 13:45:00,
2013-04-01 09:50:00,37.5,35.9,29.56,ESE,111,2.0,3.0,94,0.00,,,0.11,Wunderground v.1.15,2013-04-01 13:50:00,
2013-04-01 10:00:00,38.1,36.5,29.56,ENE,59,1.0,1.0,94,0.00,,,0.11,Wunderground v.1.15,2013-04-01 14:00:00,
2013-04-01 10:05:00,38.4,36.8,29.56,ENE,59,1.0,1.0,94,0.00,,,0.11,Wunderground v.1.15,2013-04-01 14:05:00,
2013-04-01 10:10:00,38.6,37.0,29.55,NE,48,1.0,1.0,94,0.00,,,0.11,Wunderground v.1.15,2013-04-01 14:10:00,
2013-04-01 10:15:00,38.8,37.2,29.56,SE,139,1.0,5.0,94,0.00,,,0.11,Wunderground v.1.15,2013-04-01 14:15:00,
2013-04-01 10:20:00,38.8,36.9,29.55,ESE,111,2.0,2.0,93,0.00,,,0.11,Wunderground v.1.15,2013-04-01 14:20:00,
2013-04-01 10:25:00,39.1,37.5,29.55,East,79,2.0,2.0,94,0.00,,,0.11,Wunderground v.1.15,2013-04-01 14:25:00,
2013-04-01 10:30:00,39.5,37.6,29.55,ENE,78,1.0,1.0,93,0.00,,,0.11,Wunderground v.1.15,2013-04-01 14:30:00,
2013-04-01 10:35:00,39.8,37.9,29.54,ENE,78,1.0,1.0,93,0.00,,,0.11,Wunderground v.1.15,2013-04-01 14:35:00,
2013-04-01 10:40:00,40.0,38.1,29.54,ESE,105,1.0,4.0,93,0.00,,,0.11,Wunderground v.1.15,2013-04-01 14:40:00,
2013-04-01 10:45:00,40.2,38.1,29.55,East,98,2.0,4.0,92,0.00,,,0.11,Wunderground v.1.15,2013-04-01 14:45:00,
2013-04-01 10:50:00,40.3,38.2,29.55,SE,140,2.0,8.0,92,0.00,,,0.11,Wunderground v.1.15,2013-04-01 14:50:00,
2013-04-01 10:55:00,40.2,37.8,29.54,SSE,157,4.0,4.0,91,0.00,,,0.11,Wunderground v.1.15,2013-04-01 14:55:00,
2013-04-01 11:00:00,40.5,37.8,29.55,SSE,148,5.0,6.0,90,0.00,,,0.11,Wunderground v.1.15,2013-04-01 15:00:00,
2013-04-01 11:05:00,40.6,37.9,29.54,SSE,157,5.0,6.0,90,0.00,,,0.11,Wunderground v.1.15,2013-04-01 15:05:00,
2013-04-01 11:15:00,40.5,37.5,29.54,SE,141,6.0,6.0,89,0.00,,,0.11,Wunderground v.1.15,2013-04-01 15:15:00,
2013-04-01 11:30:00,40.8,38.1,29.54,ESE,114,4.0,4.0,90,0.00,,,0.11,Wunderground v.1.15,2013-04-01 15:30:00,
2013-04-01 11:35:00,40.9,37.9,29.53,SSE,163,5.0,6.0,89,0.00,,,0.11,Wunderground v.1.15,2013-04-01 15:35:00,
2013-04-01 11:45:00,40.6,37.6,29.53,SE,134,6.0,8.0,89,0.00,,,0.11,Wunderground v.1.15,2013-04-01 15:45:00,
2013-04-01 11:50:00,40.8,37.8,29.53,SE,132,5.0,5.0,89,0.00,,,0.11,Wunderground v.1.15,2013-04-01 15:50:00,
2013-04-01 11:55:00,40.8,37.8,29.53,SE,143,4.0,5.0,89,0.00,,,0.11,Wunderground v.1.15,2013-04-01 15:55:00,
2013-04-01 12:00:00,40.7,37.7,29.53,SE,143,3.0,3.0,89,0.00,,,0.11,Wunderground v.1.15,2013-04-01 16:00:00,
2013-04-01 12:10:00,40.6,37.6,29.52,ESE,109,3.0,3.0,89,0.00,,,0.11,Wunderground v.1.15,2013-04-01 16:10:00,
2013-04-01 12:15:00,40.7,37.7,29.52,ESE,109,2.0,3.0,89,0.00,,,0.11,Wunderground v.1.15,2013-04-01 16:15:00,
2013-04-01 12:20:00,40.8,37.8,29.52,ESE,109,1.0,1.0,89,0.00,,,0.11,Wunderground v.1.15,2013-04-01 16:20:00,
2013-04-01 12:25:00,40.8,37.8,29.52,East,92,1.0,2.0,89,0.00,,,0.11,Wunderground v.1.15,2013-04-01 16:25:00,
2013-04-01 12:30:00,40.9,37.9,29.51,ESE,103,2.0,2.0,89,0.00,,,0.11,Wunderground v.1.15,2013-04-01 16:30:00,
2013-04-01 12:40:00,41.6,38.9,29.51,ESE,103,0.0,0.0,90,0.00,,,0.11,Wunderground v.1.15,2013-04-01 16:40:00,
2013-04-01 12:45:00,42.1,39.1,29.51,ESE,103,0.0,0.0,89,0.00,,,0.11,Wunderground v.1.15,2013-04-01 16:45:00,
2013-04-01 13:00:00,42.2,38.9,29.51,ESE,103,0.0,1.0,88,0.00,,,0.11,Wunderground v.1.15,2013-04-01 17:00:00,
2013-04-01 13:05:00,42.5,38.9,29.51,ESE,103,0.0,1.0,87,0.00,,,0.11,Wunderground v.1.15,2013-04-01 17:05:00,
2013-04-01 13:25:00,42.2,38.9,29.50,SE,140,3.0,6.0,88,0.00,,,0.11,Wunderground v.1.15,2013-04-01 17:25:00,
2013-04-01 13:30:00,42.1,38.8,29.50,South,177,4.0,9.0,88,0.00,,,0.11,Wunderground v.1.15,2013-04-01 17:30:00,
2013-04-01 13:35:00,42.4,38.8,29.50,SSE,165,5.0,5.0,87,0.00,,,0.11,Wunderground v.1.15,2013-04-01 17:35:00,
2013-04-01 13:40:00,42.8,39.2,29.50,SE,127,5.0,5.0,87,0.00,,,0.11,Wunderground v.1.15,2013-04-01 17:40:00,
2013-04-01 13:45:00,43.1,39.2,29.50,SSE,155,4.0,4.0,86,0.00,,,0.11,Wunderground v.1.15,2013-04-01 17:45:00,
2013-04-01 13:50:00,43.0,38.8,29.50,SSE,161,5.0,5.0,85,0.00,,,0.11,Wunderground v.1.15,2013-04-01 17:50:00,
2013-04-01 13:55:00,42.4,38.2,29.50,South,180,6.0,6.0,85,0.00,,,0.11,Wunderground v.1.15,2013-04-01 17:55:00,
2013-04-01 14:05:00,41.9,37.7,29.50,SW,219,3.0,5.0,85,0.00,,,0.11,Wunderground v.1.15,2013-04-01 18:05:00,
2013-04-01 14:10:00,41.6,37.4,29.50,South,176,4.0,5.0,85,0.00,,,0.11,Wunderground v.1.15,2013-04-01 18:10:00,
2013-04-01 14:20:00,41.3,37.1,29.51,SSW,194,5.0,5.0,85,0.00,,,0.11,Wunderground v.1.15,2013-04-01 18:20:00,
2013-04-01 14:25:00,41.0,37.4,29.51,South,174,5.0,5.0,87,0.00,,,0.11,Wunderground v.1.15,2013-04-01 18:25:00,
2013-04-01 14:30:00,40.9,37.3,29.51,South,178,5.0,6.0,87,0.00,,,0.11,Wunderground v.1.15,2013-04-01 18:30:00,
2013-04-01 14:40:00,40.9,37.9,29.51,SW,233,3.0,3.0,89,0.00,,,0.11,Wunderground v.1.15,2013-04-01 18:40:00,
2013-04-01 14:45:00,41.1,38.1,29.50,SW,217,2.0,3.0,89,0.00,,,0.11,Wunderground v.1.15,2013-04-01 18:45:00,
2013-04-01 14:50:00,41.4,38.4,29.51,SW,217,1.0,1.0,89,0.00,,,0.11,Wunderground v.1.15,2013-04-01 18:50:00,
2013-04-01 14:55:00,41.5,37.9,29.51,WSW,247,2.0,2.0,87,0.00,,,0.11,Wunderground v.1.15,2013-04-01 18:55:00,
2013-04-01 15:00:00,41.7,38.1,29.52,WNW,296,3.0,4.0,87,0.00,,,0.11,Wunderground v.1.15,2013-04-01 19:00:00,
2013-04-01 15:05:00,41.6,38.3,29.52,WSW,250,2.0,5.0,88,0.00,,,0.12,Wunderground v.1.15,2013-04-01 19:05:00,
2013-04-01 15:10:00,39.5,35.4,29.53,WSW,246,5.0,5.0,85,0.15,,,0.13,Wunderground v.1.15,2013-04-01 19:10:00,
2013-04-01 15:20:00,36.1,32.6,29.53,NW,325,5.0,5.0,87,0.11,,,0.15,Wunderground v.1.15,2013-04-01 19:20:00,
2013-04-01 15:30:00,34.2,31.8,29.54,WSW,244,8.0,8.0,91,0.08,,,0.17,Wunderground v.1.15,2013-04-01 19:30:00,
2013-04-01 15:35:00,33.9,31.6,29.54,NW,323,8.0,10.0,91,0.08,,,0.17,Wunderground v.1.15,2013-04-01 19:35:00,
2013-04-01 15:40:00,33.8,31.5,29.54,SSE,148,8.0,8.0,91,0.05,,,0.17,Wunderground v.1.15,2013-04-01 19:40:00,
2013-04-01 15:45:00,33.8,31.7,29.54,WNW,296,6.0,10.0,92,0.04,,,0.18,Wunderground v.1.15,2013-04-01 19:45:00,
2013-04-01 15:50:00,33.8,31.5,29.54,WNW,288,5.0,10.0,91,0.04,,,0.18,Wunderground v.1.15,2013-04-01 19:50:00,
2013-04-01 15:55:00,33.7,31.4,29.54,WNW,299,6.0,10.0,91,0.04,,,0.18,Wunderground v.1.15,2013-04-01 19:55:00,
2013-04-01 16:00:00,33.9,31.6,29.54,WSW,254,8.0,11.0,91,0.00,,,0.18,Wunderground v.1.15,2013-04-01 20:00:00,
2013-04-01 16:05:00,34.2,31.6,29.54,SSW,211,8.0,11.0,90,0.00,,,0.18,Wunderground v.1.15,2013-04-01 20:05:00,
2013-04-01 16:15:00,35.2,32.3,29.55,West,261,7.0,7.0,89,0.00,,,0.18,Wunderground v.1.15,2013-04-01 20:15:00,
2013-04-01 16:20:00,35.6,32.7,29.56,NW,319,5.0,5.0,89,0.00,,,0.18,Wunderground v.1.15,2013-04-01 20:20:00,
2013-04-01 16:25:00,36.0,32.8,29.57,WNW,287,4.0,5.0,88,0.00,,,0.18,Wunderground v.1.15,2013-04-01 20:25:00,
2013-04-01 16:30:00,36.0,32.2,29.57,NNW,331,4.0,4.0,86,0.00,,,0.18,Wunderground v.1.15,2013-04-01 20:30:00,
2013-04-01 16:50:00,34.7,31.5,29.59,SW,229,6.0,6.0,88,0.00,,,0.18,Wunderground v.1.15,2013-04-01 20:50:00,
2013-04-01 16:55:00,34.7,31.8,29.60,WSW,248,3.0,6.0,89,0.00,,,0.18,Wunderground v.1.15,2013-04-01 20:55:00,
2013-04-01 17:00:00,34.7,31.5,29.60,SSW,193,1.0,8.0,88,0.00,,,0.18,Wunderground v.1.15,2013-04-01 21:00:00,
2013-04-01 17:05:00,34.3,30.5,29.60,SW,235,4.0,8.0,86,0.00,,,0.18,Wunderground v.1.15,2013-04-01 21:05:00,
2013-04-01 17:10:00,34.2,31.0,29.60,West,259,5.0,5.0,88,0.00,,,0.18,Wunderground v.1.15,2013-04-01 21:10:00,
2013-04-01 17:15:00,34.1,30.6,29.61,WSW,244,4.0,5.0,87,0.00,,,0.18,Wunderground v.1.15,2013-04-01 21:15:00,
2013-04-01 17:20:00,33.8,30.1,29.61,SSW,209,5.0,13.0,86,0.00,,,0.18,Wunderground v.1.15,2013-04-01 21:20:00,
2013-04-01 17:25:00,33.8,30.1,29.62,WSW,248,6.0,10.0,86,0.00,,,0.18,Wunderground v.1.15,2013-04-01 21:25:00,
2013-04-01 17:35:00,33.8,29.2,29.61,West,265,7.0,7.0,83,0.00,,,0.18,Wunderground v.1.15,2013-04-01 21:35:00,
2013-04-01 17:45:00,34.1,28.9,29.62,SSE,158,4.0,4.0,81,0.00,,,0.18,Wunderground v.1.15,2013-04-01 21:45:00,
2013-04-01 17:50:00,34.2,28.4,29.62,SW,234,4.0,5.0,79,0.00,,,0.18,Wunderground v.1.15,2013-04-01 21:50:00,
2013-04-01 17:55:00,34.7,29.2,29.62,WSW,246,3.0,4.0,80,0.00,,,0.18,Wunderground v.1.15,2013-04-01 21:55:00,
2013-04-01 18:00:00,34.6,28.1,29.63,South,177,3.0,3.0,77,0.00,,,0.18,Wunderground v.1.15,2013-04-01 22:00:00,
2013-04-01 18:05:00,34.6,28.4,29.64,WNW,292,3.0,3.0,78,0.00,,,0.18,Wunderground v.1.15,2013-04-01 22:05:00,
2013-04-01 18:10:00,34.4,26.0,29.63,SW,223,2.0,5.0,71,0.00,,,0.18,Wunderground v.1.15,2013-04-01 22:10:00,
2013-04-01 18:20:00,34.1,25.7,29.63,West,263,3.0,3.0,71,0.00,,,0.18,Wunderground v.1.15,2013-04-01 22:20:00,
2013-04-01 18:25:00,34.0,25.2,29.63,WSW,242,3.0,3.0,70,0.00,,,0.18,Wunderground v.1.15,2013-04-01 22:25:00,
2013-04-01 18:30:00,33.9,24.8,29.64,West,271,2.0,2.0,69,0.00,,,0.18,Wunderground v.1.15,2013-04-01 22:30:00,
2013-04-01 18:35:00,33.9,26.5,29.64,NW,309,1.0,2.0,74,0.00,,,0.18,Wunderground v.1.15,2013-04-01 22:35:00,
2013-04-01 18:40:00,33.8,25.7,29.64,NW,309,1.0,2.0,72,0.00,,,0.18,Wunderground v.1.15,2013-04-01 22:40:00,
2013-04-01 18:45:00,33.7,23.9,29.65,WSW,247,1.0,1.0,67,0.00,,,0.18,Wunderground v.1.15,2013-04-01 22:45:00,
2013-04-01 18:55:00,32.9,22.0,29.65,South,188,3.0,7.0,64,0.00,,,0.18,Wunderground v.1.15,2013-04-01 22:55:00,
2013-04-01 19:00:00,32.5,21.7,29.65,SSW,205,4.0,4.0,64,0.00,,,0.18,Wunderground v.1.15,2013-04-01 23:00:00,
2013-04-01 19:10:00,32.0,21.2,29.66,West,276,2.0,2.0,64,0.00,,,0.18,Wunderground v.1.15,2013-04-01 23:10:00,
2013-04-01 19:15:00,31.8,21.0,29.66,SW,236,3.0,8.0,64,0.00,,,0.18,Wunderground v.1.15,2013-04-01 23:15:00,
2013-04-01 19:20:00,31.7,20.9,29.66,WNW,286,3.0,3.0,64,0.00,,,0.18,Wunderground v.1.15,2013-04-01 23:20:00,
2013-04-01 19:25:00,31.5,20.7,29.66,SW,219,3.0,3.0,64,0.00,,,0.18,Wunderground v.1.15,2013-04-01 23:25:00,
2013-04-01 19:55:00,30.7,19.6,29.68,SSW,202,5.0,5.0,63,0.00,,,0.18,Wunderground v.1.15,2013-04-01 23:55:00,
2013-04-01 20:05:00,30.4,18.9,29.68,NNW,339,5.0,5.0,62,0.00,,,0.18,Wunderground v.1.15,2013-04-02 00:05:00,
2013-04-01 20:20:00,29.9,18.8,29.70,West,273,5.0,6.0,63,0.00,,,0.18,Wunderground v.1.15,2013-04-02 00:20:00,
2013-04-01 20:25:00,29.8,19.1,29.70,West,273,6.0,6.0,64,0.00,,,0.18,Wunderground v.1.15,2013-04-02 00:25:00,
2013-04-01 20:40:00,29.5,18.4,29.71,West,273,5.0,6.0,63,0.00,,,0.18,Wunderground v.1.15,2013-04-02 00:40:00,
2013-04-01 20:45:00,29.4,18.7,29.71,West,273,6.0,6.0,64,0.00,,,0.18,Wunderground v.1.15,2013-04-02 00:45:00,
2013-04-01 20:50:00,29.2,18.5,29.71,West,273,5.0,6.0,64,0.00,,,0.18,Wunderground v.1.15,2013-04-02 00:50:00,
2013-04-01 20:55:00,29.1,18.4,29.71,West,273,5.0,6.0,64,0.00,,,0.18,Wunderground v.1.15,2013-04-02 00:55:00,
2013-04-01 21:00:00,29.1,18.1,29.71,West,273,6.0,6.0,63,0.00,,,0.18,Wunderground v.1.15,2013-04-02 01:00:00,
2013-04-01 21:05:00,28.8,18.9,29.72,West,273,6.0,6.0,66,0.00,,,0.18,Wunderground v.1.15,2013-04-02 01:05:00,
2013-04-01 21:25:00,28.2,19.0,29.71,West,273,4.0,6.0,68,0.00,,,0.18,Wunderground v.1.15,2013-04-02 01:25:00,
2013-04-01 21:35:00,28.4,17.4,29.71,West,273,6.0,6.0,63,0.00,,,0.18,Wunderground v.1.15,2013-04-02 01:35:00,
2013-04-01 21:40:00,28.4,17.4,29.71,West,273,5.0,6.0,63,0.00,,,0.18,Wunderground v.1.15,2013-04-02 01:40:00,
2013-04-01 21:45:00,28.4,16.3,29.71,West,273,6.0,6.0,60,0.00,,,0.18,Wunderground v.1.15,2013-04-02 01:45:00,
2013-04-01 21:50:00,28.3,16.2,29.72,West,273,6.0,6.0,60,0.00,,,0.18,Wunderground v.1.15,2013-04-02 01:50:00,
2013-04-01 21:55:00,28.3,16.6,29.72,West,273,4.0,4.0,61,0.00,,,0.18,Wunderground v.1.15,2013-04-02 01:55:00,
2013-04-01 22:00:00,28.2,16.1,29.72,West,273,3.0,11.0,60,0.00,,,0.18,Wunderground v.1.15,2013-04-02 02:00:00,
2013-04-01 22:05:00,28.1,16.4,29.72,West,273,6.0,11.0,61,0.00,,,0.18,Wunderground v.1.15,2013-04-02 02:05:00,
2013-04-01 22:10:00,27.8,16.1,29.72,West,273,7.0,7.0,61,0.00,,,0.18,Wunderground v.1.15,2013-04-02 02:10:00,
2013-04-01 22:15:00,27.8,16.1,29.72,West,273,7.0,12.0,61,0.00,,,0.18,Wunderground v.1.15,2013-04-02 02:15:00,
2013-04-01 22:25:00,27.7,16.4,29.72,West,273,7.0,12.0,62,0.00,,,0.18,Wunderground v.1.15,2013-04-02 02:25:00,
2013-04-01 22:30:00,27.6,16.3,29.73,West,273,8.0,8.0,62,0.00,,,0.18,Wunderground v.1.15,2013-04-02 02:30:00,
2013-04-01 22:35:00,27.5,16.9,29.73,West,273,7.0,8.0,64,0.00,,,0.18,Wunderground v.1.15,2013-04-02 02:35:00,
2013-04-01 22:40:00,27.3,16.7,29.73,West,273,6.0,6.0,64,0.00,,,0.18,Wunderground v.1.15,2013-04-02 02:40:00,
2013-04-01 22:45:00,27.2,16.6,29.73,West,273,5.0,6.0,64,0.00,,,0.18,Wunderground v.1.15,2013-04-02 02:45:00,
2013-04-01 22:50:00,27.2,16.3,29.73,West,273,5.0,5.0,63,0.00,,,0.18,Wunderground v.1.15,2013-04-02 02:50:00,
2013-04-01 23:00:00,27.2,15.5,29.73,West,273,7.0,7.0,61,0.00,,,0.18,Wunderground v.1.15,2013-04-02 03:00:00,
2013-04-01 23:05:00,27.0,15.7,29.73,West,273,6.0,7.0,62,0.00,,,0.18,Wunderground v.1.15,2013-04-02 03:05:00,
2013-04-01 23:15:00,26.9,16.0,29.73,West,273,5.0,5.0,63,0.00,,,0.18,Wunderground v.1.15,2013-04-02 03:15:00,
2013-04-01 23:25:00,26.8,15.9,29.73,West,273,5.0,5.0,63,0.00,,,0.18,Wunderground v.1.15,2013-04-02 03:25:00,
2013-04-01 23:30:00,26.8,16.6,29.73,West,273,5.0,5.0,65,0.00,,,0.18,Wunderground v.1.15,2013-04-02 03:30:00,
2013-04-01 23:35:00,26.7,16.5,29.73,West,273,4.0,4.0,65,0.00,,,0.18,Wunderground v.1.15,2013-04-02 03:35:00,
2013-04-01 23:45:00,26.6,16.8,29.73,West,273,2.0,3.0,66,0.00,,,0.18,Wunderground v.1.15,2013-04-02 03:45:00,
2013-04-01 23:55:00,26.1,19.6,29.73,West,273,3.0,3.0,76,0.00,,,0.18,Wunderground v.1.15,2013-04-02 03:55:00,